createdAt,value
2022-10-24T00:01:45.809Z,78.10
2022-10-24T00:04:15.300Z,78.10
2022-10-24T00:06:43.953Z,78.10
2022-10-24T00:09:12.682Z,78.00
2022-10-24T00:11:43.417Z,77.90
2022-10-24T00:14:12.039Z,77.90
2022-10-24T00:16:40.628Z,77.90
2022-10-24T00:19:09.301Z,77.90
2022-10-24T00:21:38.816Z,77.90
2022-10-24T00:24:07.784Z,77.90
2022-10-24T00:26:36.787Z,77.90
2022-10-24T00:29:06.314Z,77.90
2022-10-24T00:31:35.259Z,77.90
2022-10-24T00:34:05.519Z,77.90
2022-10-24T00:36:34.098Z,78.00
2022-10-24T00:39:04.183Z,78.00
2022-10-24T00:41:36.512Z,78.10
2022-10-24T00:44:26.345Z,78.10
2022-10-24T00:46:57.867Z,78.10
2022-10-24T00:49:31.130Z,78.10
2022-10-24T00:52:06.701Z,78.10
2022-10-24T00:54:38.170Z,78.20
2022-10-24T00:57:11.171Z,77.50
2022-10-24T00:59:41.850Z,78.20
2022-10-24T01:02:10.843Z,78.30
2022-10-24T01:04:39.041Z,78.30
2022-10-24T01:07:18.723Z,78.40
2022-10-24T01:10:04.580Z,78.50
2022-10-24T01:12:45.988Z,78.60
2022-10-24T01:15:21.216Z,78.60
2022-10-24T01:17:57.784Z,78.70
2022-10-24T01:21:06.349Z,78.70
2022-10-24T01:24:15.960Z,78.90
2022-10-24T01:27:07.237Z,78.90
2022-10-24T01:30:06.458Z,78.90
2022-10-24T01:32:47.312Z,79.10
2022-10-24T01:35:27.150Z,79.00
2022-10-24T01:38:03.150Z,79.10
2022-10-24T01:40:35.679Z,79.10
2022-10-24T01:43:28.486Z,79.30
2022-10-24T01:46:05.533Z,79.30
2022-10-24T01:48:39.520Z,79.30
2022-10-24T01:51:09.329Z,79.30
2022-10-24T01:53:38.506Z,79.30
2022-10-24T01:56:07.144Z,79.30
2022-10-24T01:58:35.727Z,79.40
2022-10-24T02:01:10.244Z,80.30
2022-10-24T02:03:43.268Z,79.50
2022-10-24T02:06:15.830Z,79.50
2022-10-24T02:08:47.559Z,79.50
2022-10-24T02:11:15.792Z,79.50
2022-10-24T02:13:51.864Z,79.50
2022-10-24T02:16:22.245Z,79.70
2022-10-24T02:18:54.990Z,79.70
2022-10-24T02:21:31.182Z,79.70
2022-10-24T02:24:04.322Z,79.80
2022-10-24T02:26:36.186Z,79.70
2022-10-24T02:29:10.695Z,79.70
2022-10-24T02:31:44.434Z,79.70
2022-10-24T02:34:14.668Z,79.70
2022-10-24T02:36:46.707Z,79.80
2022-10-24T02:39:16.948Z,79.80
2022-10-24T02:41:47.340Z,79.80
2022-10-24T02:44:18.364Z,79.90
2022-10-24T02:46:49.776Z,79.80
2022-10-24T02:49:18.314Z,79.80
2022-10-24T02:51:48.985Z,79.70
2022-10-24T02:54:17.230Z,79.80
2022-10-24T02:56:49.882Z,79.80
2022-10-24T02:59:18.672Z,79.90
2022-10-24T03:01:48.261Z,79.80
2022-10-24T03:04:16.783Z,79.90
2022-10-24T03:06:45.206Z,79.90
2022-10-24T03:09:13.467Z,79.90
2022-10-24T03:11:42.538Z,80.00
2022-10-24T03:14:10.632Z,79.90
2022-10-24T03:16:39.121Z,79.90
2022-10-24T03:19:08.767Z,80.00
2022-10-24T03:21:37.403Z,80.00
2022-10-24T03:26:34.509Z,80.00
2022-10-24T03:29:03.338Z,80.00
2022-10-24T03:31:32.301Z,80.00
2022-10-24T03:34:00.655Z,80.10
2022-10-24T03:36:30.708Z,80.00
2022-10-24T03:38:58.857Z,80.00
2022-10-24T03:41:27.492Z,80.00
2022-10-24T03:43:56.068Z,80.10
2022-10-24T03:46:24.346Z,80.00
2022-10-24T03:48:53.124Z,81.00
2022-10-24T03:51:21.348Z,80.10
2022-10-24T03:53:51.324Z,80.10
2022-10-24T03:56:19.561Z,80.20
2022-10-24T03:58:48.584Z,81.10
2022-10-24T04:01:18.781Z,80.20
2022-10-24T04:03:47.555Z,80.20
2022-10-24T04:06:16.256Z,80.20
2022-10-24T04:08:44.400Z,80.30
2022-10-24T04:11:14.446Z,80.40
2022-10-24T04:13:43.167Z,80.40
2022-10-24T04:16:11.371Z,80.40
2022-10-24T04:18:39.905Z,80.30
2022-10-24T04:21:08.203Z,80.40
2022-10-24T04:23:41.456Z,80.40
2022-10-24T04:26:10.188Z,80.40
2022-10-24T04:28:40.131Z,80.40
2022-10-24T04:31:09.252Z,80.30
2022-10-24T04:33:37.463Z,80.40
2022-10-24T04:36:06.408Z,80.30
2022-10-24T04:38:34.870Z,80.40
2022-10-24T04:41:03.796Z,80.40
2022-10-24T04:43:33.938Z,80.40
2022-10-24T04:46:03.614Z,80.40
2022-10-24T04:48:31.880Z,80.40
2022-10-24T04:51:00.120Z,80.40
2022-10-24T04:53:28.335Z,80.40
2022-10-24T04:55:56.772Z,80.50
2022-10-24T04:58:25.384Z,80.60
2022-10-24T05:00:54.011Z,80.50
2022-10-24T05:03:24.352Z,80.40
2022-10-24T05:05:52.535Z,80.60
2022-10-24T05:08:21.106Z,80.50
2022-10-24T05:10:49.264Z,80.50
2022-10-24T05:13:18.022Z,80.50
2022-10-24T05:15:46.666Z,80.50
2022-10-24T05:18:14.855Z,80.50
2022-10-24T05:20:44.933Z,80.40
2022-10-24T05:23:13.181Z,80.50
2022-10-24T05:25:41.424Z,80.60
2022-10-24T05:28:10.007Z,80.60
2022-10-24T05:30:38.537Z,80.60
2022-10-24T05:33:06.673Z,80.60
2022-10-24T05:35:35.237Z,80.60
2022-10-24T05:38:05.627Z,80.60
2022-10-24T05:40:34.262Z,80.60
2022-10-24T05:43:02.848Z,80.60
2022-10-24T05:45:30.982Z,80.70
2022-10-24T05:47:59.730Z,80.70
2022-10-24T05:50:30.512Z,80.70
2022-10-24T05:52:58.685Z,80.70
2022-10-24T05:55:28.742Z,80.60
2022-10-24T05:57:56.847Z,80.80
2022-10-24T06:00:25.385Z,80.80
2022-10-24T06:02:53.974Z,80.70
2022-10-24T06:05:22.348Z,80.80
2022-10-24T06:07:50.914Z,80.80
2022-10-24T06:10:19.354Z,80.80
2022-10-24T06:12:48.919Z,80.80
2022-10-24T06:15:17.131Z,80.80
2022-10-24T06:17:45.871Z,80.80
2022-10-24T06:20:14.038Z,80.80
2022-10-24T06:22:45.360Z,80.90
2022-10-24T06:25:14.168Z,80.80
2022-10-24T06:27:42.906Z,80.90
2022-10-24T06:30:13.434Z,80.80
2022-10-24T06:32:44.573Z,80.90
2022-10-24T06:35:15.305Z,80.90
2022-10-24T06:37:47.251Z,81.70
2022-10-24T06:40:17.386Z,80.90
2022-10-24T06:42:46.276Z,80.80
2022-10-24T06:45:15.917Z,80.80
2022-10-24T06:47:44.864Z,80.60
2022-10-24T06:50:13.264Z,80.60
2022-10-24T06:52:41.853Z,80.60
2022-10-24T06:55:11.388Z,80.60
2022-10-24T06:57:39.532Z,80.60
2022-10-24T07:00:10.236Z,80.60
2022-10-24T07:02:39.736Z,80.70
2022-10-24T07:05:13.159Z,80.70
2022-10-24T07:07:43.278Z,80.70
2022-10-24T07:10:17.527Z,80.60
2022-10-24T07:12:45.867Z,80.60
2022-10-24T07:15:14.656Z,80.60
2022-10-24T07:17:45.765Z,80.60
2022-10-24T07:20:14.987Z,80.80
2022-10-24T07:22:45.635Z,80.80
2022-10-24T07:25:14.059Z,80.90
2022-10-24T07:27:42.735Z,81.40
2022-10-24T07:30:16.030Z,81.30
2022-10-24T07:32:46.489Z,80.80
2022-10-24T07:35:15.029Z,80.80
2022-10-24T07:37:43.937Z,81.00
2022-10-24T07:40:14.018Z,81.20
2022-10-24T07:42:42.200Z,81.60
2022-10-24T07:45:12.196Z,81.90
2022-10-24T07:47:40.366Z,82.00
2022-10-24T07:50:11.220Z,82.20
2022-10-24T07:52:39.842Z,82.60
2022-10-24T07:55:08.864Z,82.60
2022-10-24T07:57:36.998Z,82.30
2022-10-24T08:00:07.061Z,82.50
2022-10-24T08:02:35.372Z,82.90
2022-10-24T08:05:04.185Z,83.00
2022-10-24T08:07:36.911Z,83.40
2022-10-24T08:10:09.243Z,84.00
2022-10-24T08:12:37.858Z,83.40
2022-10-24T08:15:07.252Z,84.20
2022-10-24T08:17:36.936Z,84.50
2022-10-24T08:20:05.634Z,84.70
2022-10-24T08:22:36.439Z,84.90
2022-10-24T08:25:09.724Z,85.10
2022-10-24T08:27:38.402Z,85.10
2022-10-24T08:30:07.650Z,85.10
2022-10-24T08:32:38.704Z,85.20
2022-10-24T08:35:07.823Z,85.20
2022-10-24T08:37:39.646Z,85.30
2022-10-24T08:40:13.551Z,85.50
2022-10-24T08:42:41.696Z,85.60
2022-10-24T08:45:15.670Z,85.60
2022-10-24T08:47:50.376Z,86.00
2022-10-24T08:50:24.942Z,86.00
2022-10-24T08:53:03.665Z,86.30
2022-10-24T08:55:54.153Z,86.40
2022-10-24T08:58:26.928Z,86.20
2022-10-24T09:00:57.966Z,86.30
2022-10-24T09:06:23.442Z,86.30
2022-10-24T09:08:55.556Z,86.00
2022-10-24T09:11:30.311Z,86.20
2022-10-24T09:13:59.134Z,86.20
2022-10-24T09:16:28.430Z,86.10
2022-10-24T09:18:58.678Z,86.00
2022-10-24T09:21:27.500Z,86.00
2022-10-24T09:23:58.220Z,86.10
2022-10-24T09:26:29.668Z,86.30
2022-10-24T09:28:58.936Z,86.30
2022-10-24T09:31:28.616Z,86.30
2022-10-24T09:34:00.856Z,86.40
2022-10-24T09:36:31.823Z,86.30
2022-10-24T09:39:24.631Z,86.50
2022-10-24T09:41:52.990Z,86.90
2022-10-24T09:44:33.861Z,86.50
2022-10-24T09:47:05.277Z,87.00
2022-10-24T09:49:41.223Z,86.80
2022-10-24T09:52:20.111Z,87.30
2022-10-24T09:55:08.659Z,87.30
2022-10-24T09:57:41.279Z,87.40
2022-10-24T10:00:23.367Z,87.10
2022-10-24T10:03:06.210Z,87.30
2022-10-24T10:05:46.531Z,87.20
2022-10-24T10:08:21.372Z,87.10
2022-10-24T10:11:03.942Z,87.10
2022-10-24T10:13:38.134Z,87.10
2022-10-24T10:16:10.737Z,87.20
2022-10-24T10:18:48.556Z,87.10
2022-10-24T10:21:19.093Z,87.10
2022-10-24T10:23:49.326Z,87.00
2022-10-24T10:26:28.442Z,87.00
2022-10-24T10:29:00.659Z,87.20
2022-10-24T10:31:35.670Z,87.00
2022-10-24T10:34:23.202Z,87.10
2022-10-24T10:37:16.664Z,87.30
2022-10-24T10:40:03.961Z,87.70
2022-10-24T10:42:39.283Z,87.30
2022-10-24T10:45:19.782Z,87.20
2022-10-24T10:48:03.580Z,87.60
2022-10-24T10:50:39.861Z,87.40
2022-10-24T10:53:29.204Z,87.30
2022-10-24T10:56:04.276Z,87.80
2022-10-24T10:58:40.997Z,87.30
2022-10-24T11:01:18.617Z,87.50
2022-10-24T11:03:52.289Z,87.70
2022-10-24T11:06:34.378Z,87.50
2022-10-24T11:09:28.790Z,87.50
2022-10-24T11:12:03.593Z,87.50
2022-10-24T11:14:36.231Z,87.10
2022-10-24T11:17:16.608Z,87.20
2022-10-24T11:19:57.806Z,87.30
2022-10-24T11:22:30.927Z,87.40
2022-10-24T11:25:04.533Z,87.40
2022-10-24T11:27:40.370Z,87.70
2022-10-24T11:30:17.012Z,87.60
2022-10-24T11:32:51.613Z,87.50
2022-10-24T11:35:29.321Z,88.50
2022-10-24T11:38:02.544Z,87.90
2022-10-24T11:40:32.053Z,87.50
2022-10-24T11:43:11.852Z,87.30
2022-10-24T11:45:48.945Z,87.50
2022-10-24T11:48:23.915Z,87.20
2022-10-24T11:50:57.027Z,87.20
2022-10-24T11:53:48.808Z,87.20
2022-10-24T11:56:27.097Z,87.50
2022-10-24T11:59:00.254Z,87.30
2022-10-24T12:01:48.428Z,87.20
2022-10-24T12:04:49.326Z,87.00
2022-10-24T12:07:49.055Z,87.20
2022-10-24T12:10:29.529Z,87.20
2022-10-24T12:13:16.786Z,87.10
2022-10-24T12:15:53.680Z,87.00
2022-10-24T12:18:33.797Z,86.80
2022-10-24T12:21:06.180Z,86.90
2022-10-24T12:23:35.022Z,86.70
2022-10-24T12:26:05.978Z,86.70
2022-10-24T12:28:34.560Z,86.80
2022-10-24T12:31:25.288Z,86.80
2022-10-24T12:34:48.325Z,86.80
2022-10-24T12:37:37.520Z,87.00
2022-10-24T12:40:50.983Z,86.60
2022-10-24T12:43:32.732Z,86.90
2022-10-24T12:46:09.388Z,86.60
2022-10-24T12:48:40.679Z,86.40
2022-10-24T12:51:30.533Z,86.40
2022-10-24T12:54:06.776Z,86.50
2022-10-24T12:56:35.963Z,86.20
2022-10-24T12:59:19.403Z,86.10
2022-10-24T13:01:49.421Z,86.30
2022-10-24T13:04:54.729Z,86.10
2022-10-24T13:08:02.893Z,86.30
2022-10-24T13:10:47.083Z,86.10
2022-10-24T13:13:41.253Z,85.90
2022-10-24T13:16:19.852Z,86.20
2022-10-24T13:19:05.582Z,86.30
2022-10-24T13:21:37.220Z,86.40
2022-10-24T13:24:21.769Z,86.30
2022-10-24T13:26:53.797Z,86.60
2022-10-24T13:29:52.121Z,86.40
2022-10-24T13:32:35.115Z,86.60
2022-10-24T13:35:07.121Z,86.60
2022-10-24T13:37:41.825Z,86.50
2022-10-24T13:40:16.502Z,86.60
2022-10-24T13:42:51.195Z,86.60
2022-10-24T13:45:27.607Z,86.80
2022-10-24T13:48:00.178Z,87.00
2022-10-24T13:50:30.697Z,87.10
2022-10-24T13:53:03.398Z,87.30
2022-10-24T13:55:36.908Z,87.30
2022-10-24T13:58:12.072Z,87.40
2022-10-24T14:00:43.296Z,87.50
2022-10-24T14:03:17.377Z,87.60
2022-10-24T14:05:49.735Z,87.70
2022-10-24T14:08:23.760Z,87.50
2022-10-24T14:10:55.833Z,87.70
2022-10-24T14:13:26.687Z,87.70
2022-10-24T14:15:57.263Z,87.70
2022-10-24T14:18:25.412Z,87.80
2022-10-24T14:20:56.174Z,87.90
2022-10-24T14:23:27.597Z,87.90
2022-10-24T14:25:59.924Z,87.70
2022-10-24T14:28:30.401Z,87.50
2022-10-24T14:31:01.001Z,87.30
2022-10-24T14:33:30.858Z,87.10
2022-10-24T14:36:01.356Z,87.00
2022-10-24T14:38:30.459Z,86.80
2022-10-24T14:41:09.066Z,86.70
2022-10-24T14:43:42.025Z,86.60
2022-10-24T14:46:28.500Z,86.40
2022-10-24T14:48:56.709Z,86.40
2022-10-24T14:51:33.872Z,86.30
2022-10-24T14:54:17.508Z,86.10
2022-10-24T14:56:48.005Z,86.10
2022-10-24T14:59:25.190Z,86.00
2022-10-24T15:02:02.799Z,85.90
2022-10-24T15:04:37.352Z,85.80
2022-10-24T15:07:16.739Z,85.70
2022-10-24T15:09:55.754Z,85.80
2022-10-24T15:12:35.561Z,85.70
2022-10-24T15:15:23.037Z,85.70
2022-10-24T15:17:52.013Z,85.70
2022-10-24T15:20:24.775Z,85.60
2022-10-24T15:22:56.655Z,85.60
2022-10-24T15:25:28.789Z,85.50
2022-10-24T15:28:00.816Z,85.50
2022-10-24T15:30:30.803Z,85.50
2022-10-24T15:33:01.065Z,85.40
2022-10-24T15:35:29.988Z,85.50
2022-10-24T15:38:00.436Z,85.50
2022-10-24T15:40:31.034Z,85.50
2022-10-24T15:43:01.329Z,85.50
2022-10-24T15:45:29.687Z,85.70
2022-10-24T15:47:58.277Z,85.70
2022-10-24T15:50:26.889Z,85.60
2022-10-24T15:52:57.230Z,85.50
2022-10-24T15:55:27.535Z,85.50
2022-10-24T15:57:57.560Z,85.50
2022-10-24T16:00:27.247Z,85.50
2022-10-24T16:02:58.694Z,85.50
2022-10-24T16:05:32.213Z,85.60
2022-10-24T16:08:00.328Z,85.60
2022-10-24T16:10:28.919Z,85.50
2022-10-24T16:12:57.046Z,85.60
2022-10-24T16:15:30.403Z,85.40
2022-10-24T16:17:58.615Z,85.40
2022-10-24T16:20:27.453Z,85.30
2022-10-24T16:22:55.737Z,85.20
2022-10-24T16:25:25.987Z,85.20
2022-10-24T16:27:54.704Z,85.40
2022-10-24T16:30:26.035Z,85.20
2022-10-24T16:32:56.043Z,85.10
2022-10-24T16:35:26.355Z,85.10
2022-10-24T16:37:55.899Z,85.10
2022-10-24T16:40:25.312Z,85.00
2022-10-24T16:42:54.549Z,85.10
2022-10-24T16:45:23.257Z,85.50
2022-10-24T16:47:51.961Z,85.20
2022-10-24T16:50:24.412Z,85.20
2022-10-24T16:52:54.594Z,85.00
2022-10-24T16:55:24.756Z,85.00
2022-10-24T16:57:52.936Z,84.80
2022-10-24T17:00:23.243Z,84.90
2022-10-24T17:02:54.051Z,85.00
2022-10-24T17:05:25.756Z,85.00
2022-10-24T17:07:54.389Z,85.00
2022-10-24T17:10:24.695Z,85.00
2022-10-24T17:12:53.996Z,85.00
2022-10-24T17:15:22.730Z,85.00
2022-10-24T17:17:51.424Z,84.90
2022-10-24T17:20:19.726Z,85.00
2022-10-24T17:22:49.658Z,85.00
2022-10-24T17:25:21.600Z,85.10
2022-10-24T17:27:50.948Z,85.00
2022-10-24T17:30:21.588Z,85.10
2022-10-24T17:32:50.059Z,85.20
2022-10-24T17:35:20.614Z,85.10
2022-10-24T17:37:58.775Z,85.20
2022-10-24T17:40:31.486Z,85.20
2022-10-24T17:43:00.714Z,85.20
2022-10-24T17:45:29.176Z,85.10
2022-10-24T17:47:57.976Z,85.20
2022-10-24T17:50:26.656Z,85.30
2022-10-24T17:52:56.217Z,85.40
2022-10-24T17:58:15.110Z,85.30
2022-10-24T18:00:44.511Z,85.00
2022-10-24T18:03:13.058Z,85.00
2022-10-24T18:05:41.374Z,85.20
2022-10-24T18:08:12.651Z,85.00
2022-10-24T18:10:41.333Z,85.10
2022-10-24T18:13:10.165Z,85.20
2022-10-24T18:15:39.402Z,85.20
2022-10-24T18:18:08.327Z,85.10
2022-10-24T18:20:37.062Z,85.10
2022-10-24T18:23:05.573Z,85.00
2022-10-24T18:25:35.566Z,85.00
2022-10-24T18:28:04.240Z,85.00
2022-10-24T18:30:32.863Z,85.00
2022-10-24T18:33:00.985Z,85.00
2022-10-24T18:35:33.132Z,84.90
2022-10-24T18:38:02.116Z,85.00
2022-10-24T18:40:33.791Z,85.10
2022-10-24T18:43:06.484Z,85.10
2022-10-24T18:45:36.143Z,85.20
2022-10-24T18:48:04.966Z,84.80
2022-10-24T18:50:33.309Z,85.00
2022-10-24T18:53:07.395Z,85.00
2022-10-24T18:55:36.734Z,85.00
2022-10-24T18:58:12.085Z,85.10
2022-10-24T19:00:43.490Z,85.00
2022-10-24T19:03:23.412Z,85.10
2022-10-24T19:05:57.593Z,85.00
2022-10-24T19:08:28.118Z,84.80
2022-10-24T19:10:56.993Z,85.00
2022-10-24T19:13:28.482Z,85.00
2022-10-24T19:16:00.566Z,85.10
2022-10-24T19:18:31.597Z,85.10
2022-10-24T19:20:59.927Z,85.00
2022-10-24T19:23:28.340Z,85.00
2022-10-24T19:25:56.463Z,85.00
2022-10-24T19:28:26.423Z,85.00
2022-10-24T19:30:55.113Z,84.90
2022-10-24T19:33:27.977Z,84.80
2022-10-24T19:35:56.416Z,84.70
2022-10-24T19:38:25.006Z,84.60
2022-10-24T19:40:55.090Z,84.70
2022-10-24T19:43:25.072Z,84.70
2022-10-24T19:46:14.826Z,84.70
2022-10-24T19:48:43.946Z,85.50
2022-10-24T19:51:14.516Z,84.80
2022-10-24T19:53:44.634Z,84.90
2022-10-24T19:56:15.309Z,84.90
2022-10-24T19:58:44.211Z,85.00
2022-10-24T20:01:16.109Z,85.00
2022-10-24T20:03:46.085Z,85.00
2022-10-24T20:06:15.322Z,85.00
2022-10-24T20:08:43.645Z,85.10
2022-10-24T20:11:12.260Z,85.10
2022-10-24T20:13:40.893Z,85.10
2022-10-24T20:16:10.419Z,85.20
2022-10-24T20:21:10.951Z,85.20
2022-10-24T20:23:42.106Z,85.10
2022-10-24T20:26:12.366Z,85.00
2022-10-24T20:28:43.281Z,85.10
2022-10-24T20:31:19.748Z,85.00
2022-10-24T20:33:49.767Z,85.00
2022-10-24T20:36:18.652Z,84.70
2022-10-24T20:38:47.223Z,84.70
2022-10-24T20:41:15.428Z,84.70
2022-10-24T20:43:43.673Z,84.60
2022-10-24T20:46:12.962Z,84.70
2022-10-24T20:48:41.202Z,84.90
2022-10-24T20:51:12.704Z,85.00
2022-10-24T20:53:41.813Z,85.00
2022-10-24T20:56:11.861Z,85.00
2022-10-24T20:58:41.707Z,84.90
2022-10-24T21:01:11.654Z,84.80
2022-10-24T21:03:40.698Z,84.80
2022-10-24T21:06:19.161Z,84.80
2022-10-24T21:08:49.621Z,84.70
2022-10-24T21:11:20.791Z,84.80
2022-10-24T21:13:48.936Z,84.50
2022-10-24T21:16:17.250Z,84.50
2022-10-24T21:18:45.861Z,84.30
2022-10-24T21:21:16.463Z,84.30
2022-10-24T21:23:46.142Z,84.30
2022-10-24T21:26:16.108Z,84.30
2022-10-24T21:28:44.245Z,84.50
2022-10-24T21:31:14.477Z,84.30
2022-10-24T21:33:43.016Z,84.30
2022-10-24T21:36:13.266Z,84.30
2022-10-24T21:38:42.179Z,84.40
2022-10-24T21:41:12.389Z,84.20
2022-10-24T21:43:42.376Z,84.00
2022-10-24T21:46:12.773Z,84.20
2022-10-24T21:48:42.498Z,84.20
2022-10-24T21:51:13.021Z,84.10
2022-10-24T21:53:42.570Z,84.00
2022-10-24T21:56:13.841Z,83.80
2022-10-24T21:58:43.279Z,83.50
2022-10-24T22:01:13.542Z,83.80
2022-10-24T22:03:42.420Z,83.60
2022-10-24T22:06:13.146Z,83.80
2022-10-24T22:08:41.980Z,83.90
2022-10-24T22:11:14.972Z,84.00
2022-10-24T22:13:43.949Z,84.00
2022-10-24T22:16:13.874Z,83.90
2022-10-24T22:18:43.178Z,83.90
2022-10-24T22:21:22.133Z,83.80
2022-10-24T22:23:50.321Z,83.80
2022-10-24T22:26:19.932Z,83.80
2022-10-24T22:28:48.599Z,83.80
2022-10-24T22:31:17.347Z,83.60
2022-10-24T22:33:46.382Z,83.60
2022-10-24T22:36:20.872Z,83.40
2022-10-24T22:38:53.736Z,83.60
2022-10-24T22:41:24.536Z,83.40
2022-10-24T22:43:53.772Z,83.10
2022-10-24T22:46:36.049Z,83.40
2022-10-24T22:49:08.991Z,83.20
2022-10-24T22:51:37.660Z,83.30
2022-10-24T22:54:06.448Z,83.20
2022-10-24T22:56:36.830Z,83.20
2022-10-24T22:59:05.466Z,83.20
2022-10-24T23:01:43.217Z,83.00
2022-10-24T23:04:25.863Z,83.00
2022-10-24T23:06:59.343Z,83.20
2022-10-24T23:09:27.903Z,83.30
2022-10-24T23:11:58.225Z,83.10
2022-10-24T23:14:27.470Z,83.10
2022-10-24T23:16:59.409Z,83.20
2022-10-24T23:19:29.709Z,83.20
2022-10-24T23:21:59.796Z,83.50
2022-10-24T23:24:28.948Z,83.30
2022-10-24T23:27:21.941Z,83.30
2022-10-24T23:29:50.536Z,83.80
2022-10-24T23:32:22.729Z,83.60
2022-10-24T23:34:52.212Z,83.50
2022-10-24T23:37:30.212Z,83.50
2022-10-24T23:39:58.901Z,83.30
2022-10-24T23:42:29.066Z,83.20
2022-10-24T23:44:58.099Z,83.30
2022-10-24T23:47:50.136Z,83.30
2022-10-24T23:50:25.956Z,83.10
2022-10-24T23:53:08.882Z,83.10
2022-10-24T23:55:37.430Z,82.70
2022-10-24T23:58:07.402Z,82.90
